Time;durP1;ratioP1;P1;durP2;ratioP2;P2;SDS_P1;SDS_P2;PMS_P1;PMS_P2;Temp;Humidity;BMP_temperature;BMP_pressure;BME280_temperature;BME280_humidity;BME280_pressure;Samples;Min_cycle;Max_cycle;Signal;HPM_P1;HPM_P2
2022/07/24 00:00:06;;;;;;;8.03;5.03;;;12.40;84.80;;;;;;5040005;28;20609;-87
2022/07/24 00:02:31;;;;;;;6.33;5.23;;;12.50;85.10;;;;;;5039687;28;20650;-86
2022/07/24 00:04:57;;;;;;;10.37;5.80;;;12.50;85.70;;;;;;5057748;28;20215;-86
2022/07/24 00:07:23;;;;;;;8.03;5.20;;;12.50;85.80;;;;;;5057220;28;20196;-86
2022/07/24 00:09:48;;;;;;;6.10;4.70;;;12.60;85.90;;;;;;5057118;28;20175;-85
2022/07/24 00:12:14;;;;;;;9.07;5.00;;;12.60;85.70;;;;;;5039275;28;20175;-85
2022/07/24 00:14:39;;;;;;;7.60;4.87;;;12.60;85.40;;;;;;5056973;28;20246;-87
2022/07/24 00:17:05;;;;;;;14.00;4.87;;;12.50;85.30;;;;;;5039030;28;20275;-86
2022/07/24 00:19:30;;;;;;;7.37;5.23;;;12.50;85.20;;;;;;5039086;28;20191;-86
2022/07/24 00:21:57;;;;;;;9.30;5.37;;;12.60;85.00;;;;;;5038967;28;20172;-86
2022/07/24 00:24:22;;;;;;;7.50;5.80;;;12.60;85.20;;;;;;5038570;28;20675;-86
2022/07/24 00:26:48;;;;;;;10.30;5.77;;;12.50;85.60;;;;;;5039294;28;20219;-85
2022/07/24 00:29:13;;;;;;;10.20;6.70;;;12.50;86.60;;;;;;5038944;28;20172;-86
2022/07/24 00:31:39;;;;;;;9.73;6.87;;;12.40;86.80;;;;;;5056491;28;20179;-85
2022/07/24 00:34:05;;;;;;;12.17;7.20;;;12.40;87.40;;;;;;5038709;28;20223;-85
2022/07/24 00:36:30;;;;;;;12.93;8.33;;;12.40;87.70;;;;;;5056456;28;20199;-85
2022/07/24 00:38:56;;;;;;;10.00;8.00;;;12.20;88.50;;;;;;5039202;28;20218;-85
2022/07/24 00:41:21;;;;;;;10.93;7.20;;;12.20;88.80;;;;;;5056349;28;20176;-84
2022/07/24 00:44:02;;;;;;;7.47;6.70;;;12.20;89.00;;;;;;5056253;28;20192;-86
2022/07/24 00:46:28;;;;;;;8.03;6.90;;;12.20;89.10;;;;;;5038536;28;20206;-86
2022/07/24 00:48:53;;;;;;;10.47;6.17;;;12.30;89.20;;;;;;5037116;28;20551;-85
2022/07/24 00:51:19;;;;;;;9.40;6.40;;;12.30;89.00;;;;;;5038606;28;20187;-86
2022/07/24 00:53:44;;;;;;;7.50;6.33;;;12.30;88.90;;;;;;5038090;28;20215;-86
2022/07/24 00:56:10;;;;;;;6.90;6.30;;;12.40;88.70;;;;;;5038071;28;20176;-83
2022/07/24 00:58:36;;;;;;;6.70;6.10;;;12.40;88.60;;;;;;5037889;28;20176;-85
2022/07/24 01:01:01;;;;;;;8.27;5.40;;;12.50;88.30;;;;;;5037907;28;20172;-84
2022/07/24 01:03:27;;;;;;;7.13;5.53;;;12.50;88.10;;;;;;5055606;28;20547;-84
2022/07/24 01:05:52;;;;;;;5.70;5.10;;;12.40;87.90;;;;;;5055390;28;20179;-84
2022/07/24 01:08:18;;;;;;;8.97;4.97;;;12.40;87.80;;;;;;5037628;28;20175;-84
2022/07/24 01:10:44;;;;;;;5.60;5.03;;;12.40;87.70;;;;;;5037785;28;20172;-84
2022/07/24 01:13:10;;;;;;;8.43;4.93;;;12.40;87.60;;;;;;5055536;28;20699;-84
2022/07/24 01:15:36;;;;;;;7.37;5.07;;;12.30;87.40;;;;;;5055335;28;20218;-84
2022/07/24 01:18:02;;;;;;;5.37;4.87;;;12.30;87.30;;;;;;5037477;28;20183;-84
2022/07/24 01:20:28;;;;;;;6.33;5.07;;;12.30;87.40;;;;;;5037487;28;20180;-84
2022/07/24 01:22:53;;;;;;;5.27;4.77;;;12.30;87.20;;;;;;5037269;28;20557;-84
2022/07/24 01:25:19;;;;;;;4.77;4.37;;;12.30;87.00;;;;;;5037294;28;20200;-84
2022/07/24 01:27:45;;;;;;;4.90;4.47;;;12.30;86.90;;;;;;5037153;28;20309;-84
2022/07/24 01:30:11;;;;;;;4.60;4.20;;;12.20;86.80;;;;;;5037375;28;20230;-84
2022/07/24 01:32:37;;;;;;;6.73;4.77;;;12.10;86.90;;;;;;5037244;28;20180;-84
2022/07/24 01:35:04;;;;;;;6.20;4.53;;;12.00;86.90;;;;;;5054864;28;20558;-84
2022/07/24 01:37:29;;;;;;;4.47;4.07;;;12.10;86.80;;;;;;5037078;28;20180;-84
2022/07/24 01:39:55;;;;;;;5.33;4.60;;;12.00;86.60;;;;;;5037104;28;20187;-84
2022/07/24 01:42:20;;;;;;;4.47;3.83;;;11.90;86.40;;;;;;5054860;28;20180;-84
2022/07/24 01:44:46;;;;;;;4.07;3.70;;;12.00;86.40;;;;;;5036918;28;20200;-84
2022/07/24 01:47:12;;;;;;;5.10;4.70;;;11.90;86.10;;;;;;5054634;28;20204;-84
2022/07/24 01:49:37;;;;;;;4.73;4.33;;;11.80;85.90;;;;;;5037379;28;20517;-84
2022/07/24 01:52:03;;;;;;;6.00;5.50;;;11.70;85.90;;;;;;5036869;28;20200;-84
2022/07/24 01:54:29;;;;;;;8.60;6.33;;;11.70;86.30;;;;;;5054582;28;20755;-84
2022/07/24 01:56:54;;;;;;;12.90;7.07;;;11.50;86.50;;;;;;5054718;28;20230;-85
2022/07/24 01:59:20;;;;;;;12.57;7.67;;;11.50;87.00;;;;;;5036097;28;20180;-84
2022/07/24 02:01:45;;;;;;;8.73;6.90;;;11.50;87.30;;;;;;5054498;28;20229;-84
2022/07/24 02:04:11;;;;;;;6.97;6.30;;;11.50;87.50;;;;;;5054368;28;20192;-84
2022/07/24 02:06:37;;;;;;;6.70;6.03;;;11.50;87.50;;;;;;5054352;28;20235;-85
2022/07/24 02:09:03;;;;;;;6.73;6.13;;;11.50;87.60;;;;;;5054270;28;20169;-84
2022/07/24 02:11:28;;;;;;;7.73;6.93;;;11.60;87.60;;;;;;5054370;28;20203;-85
2022/07/24 02:13:55;;;;;;;9.87;8.10;;;11.60;87.80;;;;;;5036297;28;20674;-84
2022/07/24 02:16:21;;;;;;;13.70;8.40;;;11.70;87.90;;;;;;5036302;28;20229;-84
2022/07/24 02:18:46;;;;;;;12.97;7.37;;;11.70;88.10;;;;;;5054270;28;20164;-84
2022/07/24 02:21:12;;;;;;;8.00;7.20;;;11.70;88.20;;;;;;5036295;28;20183;-84
2022/07/24 02:23:38;;;;;;;7.10;6.33;;;11.70;88.10;;;;;;5036222;28;20210;-84
2022/07/24 02:26:04;;;;;;;9.73;6.20;;;11.60;87.90;;;;;;5036104;28;20219;-84
2022/07/24 02:28:30;;;;;;;8.43;6.43;;;11.50;87.90;;;;;;5036222;28;20211;-84
2022/07/24 02:30:55;;;;;;;6.30;5.80;;;11.50;87.70;;;;;;5053905;28;20589;-84
2022/07/24 02:33:21;;;;;;;7.40;6.70;;;11.50;88.20;;;;;;5035788;28;20211;-84
2022/07/24 02:35:46;;;;;;;7.33;6.50;;;11.60;88.40;;;;;;5036167;28;20195;-84
2022/07/24 02:38:12;;;;;;;7.50;6.70;;;11.60;88.40;;;;;;5036057;28;20180;-84
2022/07/24 02:40:37;;;;;;;7.03;6.33;;;11.60;88.50;;;;;;5053834;28;20176;-84
2022/07/24 02:43:03;;;;;;;11.83;7.50;;;11.70;88.60;;;;;;5053796;28;20173;-84
2022/07/24 02:45:28;;;;;;;8.63;7.33;;;11.70;88.80;;;;;;5053760;28;20577;-84
2022/07/24 02:47:56;;;;;;;11.90;6.97;;;11.70;89.10;;;;;;5035810;28;20239;-84
2022/07/24 02:50:25;;;;;;;10.70;7.33;;;11.60;88.90;;;;;;5035721;28;20175;-84
2022/07/24 02:52:50;;;;;;;16.87;7.30;;;11.40;88.90;;;;;;5053757;28;20610;-84
2022/07/24 02:55:16;;;;;;;11.30;7.73;;;11.30;89.00;;;;;;5035613;28;20294;-84
2022/07/24 02:57:42;;;;;;;8.57;7.77;;;11.20;89.20;;;;;;5053458;28;20203;-84
2022/07/24 03:00:11;;;;;;;14.37;8.20;;;11.20;89.30;;;;;;5035673;28;20211;-84
2022/07/24 03:02:37;;;;;;;9.83;8.37;;;11.20;89.40;;;;;;5053334;28;20256;-84
2022/07/24 03:05:04;;;;;;;11.97;7.73;;;11.30;89.50;;;;;;5053267;28;20278;-83
2022/07/24 03:07:30;;;;;;;8.53;7.40;;;11.20;89.50;;;;;;5053343;28;20206;-84
2022/07/24 03:09:56;;;;;;;7.60;6.87;;;11.30;89.70;;;;;;5053296;28;20172;-84
2022/07/24 03:12:22;;;;;;;11.77;7.93;;;11.40;89.90;;;;;;5034795;28;20180;-84
2022/07/24 03:14:47;;;;;;;10.10;8.10;;;11.50;89.90;;;;;;5053121;28;20238;-84
2022/07/24 03:17:13;;;;;;;10.90;8.37;;;11.40;89.90;;;;;;5053233;28;20541;-84
2022/07/24 03:19:38;;;;;;;12.53;8.30;;;11.30;89.90;;;;;;5053299;28;20584;-84
2022/07/24 03:22:05;;;;;;;11.97;9.27;;;11.30;90.10;;;;;;5053178;28;20214;-84
2022/07/24 03:24:30;;;;;;;17.10;9.90;;;11.30;90.30;;;;;;5035305;28;20249;-84
2022/07/24 03:26:56;;;;;;;14.60;9.10;;;11.30;90.50;;;;;;5053356;28;20200;-84
2022/07/24 03:29:22;;;;;;;19.00;9.87;;;11.30;90.70;;;;;;5035266;28;20183;-84
2022/07/24 03:31:47;;;;;;;13.20;9.47;;;11.40;90.80;;;;;;5035250;28;20176;-84
2022/07/24 03:34:13;;;;;;;13.87;9.23;;;11.40;90.90;;;;;;5053027;28;20211;-84
2022/07/24 03:36:39;;;;;;;11.43;10.23;;;11.50;91.10;;;;;;5035130;28;20190;-84
2022/07/24 03:39:05;;;;;;;11.73;9.50;;;11.80;91.40;;;;;;5053151;28;20176;-84
2022/07/24 03:41:31;;;;;;;18.90;9.67;;;11.90;91.30;;;;;;5053021;28;20172;-84
2022/07/24 03:43:57;;;;;;;15.20;8.73;;;12.10;91.30;;;;;;5035028;28;20350;-84
2022/07/24 03:46:23;;;;;;;18.33;8.77;;;12.30;91.30;;;;;;5034892;28;20204;-84
2022/07/24 03:48:49;;;;;;;12.87;8.60;;;12.40;90.90;;;;;;5035156;28;20182;-84
2022/07/24 03:51:14;;;;;;;10.20;8.57;;;12.50;90.20;;;;;;5052844;28;20172;-84
2022/07/24 03:53:40;;;;;;;13.17;8.03;;;12.70;89.80;;;;;;5035012;28;20390;-84
2022/07/24 03:56:09;;;;;;;9.27;7.77;;;12.80;89.20;;;;;;5035163;28;20179;-84
2022/07/24 03:58:35;;;;;;;9.17;7.90;;;12.90;88.70;;;;;;5035025;28;20230;-84
2022/07/24 04:01:01;;;;;;;9.57;7.83;;;13.00;88.50;;;;;;5035101;28;20229;-84
2022/07/24 04:03:27;;;;;;;7.83;6.60;;;13.20;88.20;;;;;;5034864;28;20180;-85
2022/07/24 04:05:52;;;;;;;13.47;7.77;;;13.20;87.70;;;;;;5052717;28;20199;-84
2022/07/24 04:08:18;;;;;;;10.47;6.57;;;13.50;87.50;;;;;;5035035;28;20211;-85
2022/07/24 04:10:44;;;;;;;8.87;6.63;;;13.50;86.70;;;;;;5034941;28;20183;-85
2022/07/24 04:13:09;;;;;;;9.17;6.33;;;13.70;86.50;;;;;;5034981;28;20267;-84
2022/07/24 04:15:35;;;;;;;13.47;6.77;;;13.70;86.00;;;;;;5034956;28;20681;-84
2022/07/24 04:18:00;;;;;;;7.77;6.83;;;13.70;86.00;;;;;;5052619;28;20520;-84
2022/07/24 04:20:26;;;;;;;7.33;6.60;;;13.70;85.70;;;;;;5034670;28;20180;-84
2022/07/24 04:22:52;;;;;;;7.87;6.47;;;13.60;85.60;;;;;;5036515;28;20179;-84
2022/07/24 04:25:18;;;;;;;10.47;6.30;;;13.50;85.70;;;;;;5038335;28;20204;-85
2022/07/24 04:27:43;;;;;;;9.00;6.13;;;13.60;85.60;;;;;;5038278;28;20204;-84
2022/07/24 04:30:10;;;;;;;12.83;6.37;;;13.50;85.60;;;;;;5038391;28;20172;-84
2022/07/24 04:32:36;;;;;;;10.07;6.00;;;13.50;85.60;;;;;;5038172;28;20186;-85
2022/07/24 04:35:03;;;;;;;12.93;6.27;;;13.50;85.60;;;;;;5038503;28;20239;-85
2022/07/24 04:37:28;;;;;;;12.23;7.00;;;13.50;85.80;;;;;;5038257;28;20183;-85
2022/07/24 04:39:54;;;;;;;7.10;5.93;;;13.40;86.10;;;;;;5038231;28;20544;-84
2022/07/24 04:42:19;;;;;;;9.23;6.33;;;13.40;86.40;;;;;;5038238;28;20180;-85
2022/07/24 04:44:45;;;;;;;11.60;6.77;;;13.20;86.80;;;;;;5037954;28;20203;-85
2022/07/24 04:47:10;;;;;;;9.27;6.33;;;13.30;87.00;;;;;;5038144;28;20207;-85
2022/07/24 04:49:36;;;;;;;8.50;6.47;;;13.30;87.10;;;;;;5038000;28;20175;-84
2022/07/24 04:52:01;;;;;;;11.87;6.53;;;13.40;86.90;;;;;;5037904;28;20176;-85
2022/07/24 04:54:27;;;;;;;7.90;6.47;;;13.40;86.80;;;;;;5037707;28;20689;-85
2022/07/24 04:56:53;;;;;;;7.43;6.53;;;13.30;86.70;;;;;;5055857;28;20545;-85
2022/07/24 04:59:18;;;;;;;8.90;6.37;;;13.40;86.80;;;;;;5055616;28;20179;-85
2022/07/24 05:01:44;;;;;;;8.30;6.17;;;13.40;87.10;;;;;;5037826;28;20210;-85
2022/07/24 05:04:09;;;;;;;9.57;6.40;;;13.40;86.90;;;;;;5037662;28;20665;-85
2022/07/24 05:06:35;;;;;;;9.57;6.47;;;13.30;87.60;;;;;;5055426;28;20549;-84
2022/07/24 05:09:01;;;;;;;8.50;7.30;;;13.20;88.20;;;;;;5037536;28;20198;-85
2022/07/24 05:11:26;;;;;;;9.97;7.33;;;13.20;88.70;;;;;;5037382;28;20294;-84
2022/07/24 05:13:52;;;;;;;8.43;6.67;;;13.30;88.90;;;;;;5055396;28;20195;-84
2022/07/24 05:16:17;;;;;;;10.33;7.33;;;13.30;89.10;;;;;;5037637;28;20655;-84
2022/07/24 05:18:43;;;;;;;7.77;6.03;;;13.30;89.10;;;;;;5037583;28;20266;-85
2022/07/24 05:21:08;;;;;;;12.80;7.63;;;13.50;89.20;;;;;;5037710;28;20172;-84
2022/07/24 05:23:34;;;;;;;6.97;6.20;;;13.50;89.20;;;;;;5055266;28;20638;-85
2022/07/24 05:25:59;;;;;;;8.97;6.50;;;13.60;89.20;;;;;;5037632;28;20654;-84
2022/07/24 05:28:25;;;;;;;8.43;6.50;;;13.60;89.40;;;;;;5055466;28;20172;-85
2022/07/24 05:30:50;;;;;;;8.90;5.93;;;13.70;89.50;;;;;;5055245;28;20634;-85
2022/07/24 05:33:16;;;;;;;8.03;6.27;;;13.70;89.50;;;;;;5037150;28;20216;-84
2022/07/24 05:35:41;;;;;;;9.37;6.83;;;13.80;89.40;;;;;;5036303;28;20281;-85
2022/07/24 05:38:07;;;;;;;7.47;5.80;;;13.80;89.30;;;;;;5037126;28;20650;-85
2022/07/24 05:40:33;;;;;;;9.57;6.03;;;13.90;89.30;;;;;;5037110;28;20180;-85
2022/07/24 05:42:58;;;;;;;8.37;5.80;;;14.00;89.30;;;;;;5037283;28;20196;-85
2022/07/24 05:45:24;;;;;;;10.07;5.40;;;14.10;89.40;;;;;;5055201;28;20218;-85
2022/07/24 05:47:49;;;;;;;6.87;5.33;;;14.20;89.00;;;;;;5036933;28;20627;-85
2022/07/24 05:50:15;;;;;;;8.70;5.17;;;14.30;88.90;;;;;;5055089;28;20211;-85
2022/07/24 05:52:41;;;;;;;7.20;5.47;;;14.50;88.60;;;;;;5036807;28;20687;-85
2022/07/24 05:55:08;;;;;;;6.90;4.50;;;14.60;88.10;;;;;;5054548;28;20220;-85
2022/07/24 05:57:33;;;;;;;4.60;4.13;;;14.70;88.00;;;;;;5037086;28;20677;-85
2022/07/24 05:59:59;;;;;;;5.03;4.03;;;14.80;87.70;;;;;;5036929;28;20183;-85
2022/07/24 06:02:25;;;;;;;8.67;4.47;;;14.80;87.40;;;;;;5036596;28;20172;-85
2022/07/24 06:04:50;;;;;;;8.57;4.00;;;14.80;86.90;;;;;;5036552;28;20253;-85
2022/07/24 06:07:16;;;;;;;5.67;3.47;;;15.00;86.80;;;;;;5036611;28;20200;-85
2022/07/24 06:09:42;;;;;;;4.20;3.80;;;15.10;86.80;;;;;;5054760;28;20253;-85
2022/07/24 06:12:08;;;;;;;6.37;3.67;;;15.20;86.10;;;;;;5036686;28;20180;-85
2022/07/24 06:14:33;;;;;;;3.83;3.40;;;15.20;85.70;;;;;;5054553;28;20192;-85
2022/07/24 06:17:00;;;;;;;5.93;3.57;;;15.30;85.80;;;;;;5036634;28;20187;-85
2022/07/24 06:19:25;;;;;;;8.40;4.50;;;15.30;85.10;;;;;;5037092;28;20180;-85
2022/07/24 06:21:51;;;;;;;4.13;3.60;;;15.40;85.40;;;;;;5036104;28;20184;-85
2022/07/24 06:24:17;;;;;;;7.67;4.00;;;15.50;85.50;;;;;;5036192;28;20200;-85
2022/07/24 06:26:42;;;;;;;4.27;3.37;;;15.60;85.00;;;;;;5036282;28;20211;-85
2022/07/24 06:29:08;;;;;;;4.83;3.33;;;15.70;84.80;;;;;;5036070;28;20176;-85
2022/07/24 06:31:33;;;;;;;4.03;3.37;;;15.70;84.60;;;;;;5054224;28;20178;-85
2022/07/24 06:33:59;;;;;;;5.97;3.60;;;15.80;84.90;;;;;;5036018;28;20226;-85
2022/07/24 06:36:25;;;;;;;3.50;3.00;;;15.90;83.90;;;;;;5036053;28;20180;-85
2022/07/24 06:38:50;;;;;;;5.20;3.75;;;16.00;84.20;;;;;;5036008;28;20176;-85
2022/07/24 06:41:16;;;;;;;4.80;3.28;;;16.10;84.00;;;;;;5036118;28;20571;-86
2022/07/24 06:43:41;;;;;;;6.05;3.10;;;16.20;83.70;;;;;;5035778;28;20696;-85
2022/07/24 06:46:07;;;;;;;5.55;2.97;;;16.40;83.60;;;;;;5035856;28;20180;-85
2022/07/24 06:48:33;;;;;;;4.88;3.10;;;16.60;83.10;;;;;;5036700;28;20533;-85
2022/07/24 06:50:58;;;;;;;3.78;3.42;;;16.50;82.20;;;;;;5053609;28;20171;-86
2022/07/24 06:53:24;;;;;;;4.55;2.88;;;16.50;82.50;;;;;;5035563;28;20172;-85
2022/07/24 06:55:53;;;;;;;4.72;2.85;;;16.60;82.40;;;;;;5053464;28;20172;-85
2022/07/24 06:58:19;;;;;;;5.68;2.80;;;16.70;82.50;;;;;;5035745;28;20176;-85
2022/07/24 07:00:45;;;;;;;3.53;2.65;;;16.90;82.40;;;;;;5053467;28;20210;-85
2022/07/24 07:03:10;;;;;;;4.95;3.20;;;17.00;81.40;;;;;;5035560;28;20176;-85
2022/07/24 07:05:36;;;;;;;2.80;2.60;;;17.00;81.90;;;;;;5053409;28;20188;-85
2022/07/24 07:08:02;;;;;;;3.10;2.83;;;17.10;81.50;;;;;;5035384;28;20573;-85
2022/07/24 07:10:28;;;;;;;3.33;2.60;;;17.10;80.60;;;;;;5035441;28;20172;-85
2022/07/24 07:12:53;;;;;;;6.20;3.13;;;17.20;80.20;;;;;;5035599;28;20179;-85
2022/07/24 07:15:19;;;;;;;6.50;2.90;;;17.30;80.30;;;;;;5035525;28;20192;-85
2022/07/24 07:17:44;;;;;;;7.68;2.65;;;17.50;79.70;;;;;;5053298;28;20171;-86
2022/07/24 07:20:11;;;;;;;5.22;2.80;;;17.60;80.10;;;;;;5035525;28;20563;-86
2022/07/24 07:22:37;;;;;;;3.30;2.40;;;17.70;79.60;;;;;;5035213;28;20542;-85
2022/07/24 07:25:03;;;;;;;4.68;2.47;;;17.90;79.80;;;;;;5035149;28;20195;-85
2022/07/24 07:27:29;;;;;;;3.38;2.50;;;18.00;79.80;;;;;;5053099;28;20553;-86
2022/07/24 07:29:55;;;;;;;4.03;2.30;;;18.00;78.90;;;;;;5053330;28;20179;-84
2022/07/24 07:32:20;;;;;;;2.78;2.47;;;18.00;78.70;;;;;;5035243;28;20176;-84
2022/07/24 07:34:46;;;;;;;5.07;2.38;;;18.10;78.80;;;;;;5053149;28;20199;-85
2022/07/24 07:37:11;;;;;;;3.50;2.40;;;18.30;78.30;;;;;;5053110;28;20206;-84
2022/07/24 07:39:37;;;;;;;5.72;2.80;;;18.30;77.00;;;;;;5035296;28;20218;-85
2022/07/24 07:42:03;;;;;;;3.60;2.42;;;18.40;76.40;;;;;;5052931;28;20168;-86
2022/07/24 07:44:28;;;;;;;5.78;2.88;;;18.50;77.50;;;;;;5052969;28;20199;-85
2022/07/24 07:46:54;;;;;;;6.68;3.58;;;18.70;76.10;;;;;;5034856;28;20317;-86
2022/07/24 07:49:19;;;;;;;3.25;2.20;;;18.70;76.30;;;;;;5035129;28;20550;-85
2022/07/24 07:51:47;;;;;;;2.83;2.25;;;18.80;76.40;;;;;;5035072;28;20558;-85
2022/07/24 07:54:14;;;;;;;3.90;2.50;;;19.10;75.90;;;;;;5052776;28;20271;-85
2022/07/24 07:56:40;;;;;;;4.20;2.20;;;19.10;74.70;;;;;;5053012;28;20186;-86
2022/07/24 07:59:05;;;;;;;4.40;2.30;;;19.20;74.60;;;;;;5038957;28;20211;-85
2022/07/24 08:01:31;;;;;;;5.40;2.50;;;19.20;74.00;;;;;;5039013;28;20178;-85
2022/07/24 08:03:57;;;;;;;3.58;2.33;;;19.40;74.50;;;;;;5038801;28;20203;-86
2022/07/24 08:06:22;;;;;;;3.95;2.17;;;19.50;73.70;;;;;;5056697;28;20286;-86
2022/07/24 08:08:48;;;;;;;5.10;2.40;;;19.70;73.50;;;;;;5056570;28;20279;-86
2022/07/24 08:11:13;;;;;;;5.40;2.53;;;19.70;73.50;;;;;;5056786;28;20191;-85
2022/07/24 08:13:39;;;;;;;4.30;2.10;;;19.90;73.40;;;;;;5038508;28;20716;-86
2022/07/24 08:16:05;;;;;;;2.80;2.05;;;20.00;72.70;;;;;;5038662;28;20237;-86
2022/07/24 08:18:30;;;;;;;1.98;1.88;;;20.10;73.10;;;;;;5038429;28;20225;-85
2022/07/24 08:20:56;;;;;;;2.70;2.20;;;20.10;72.80;;;;;;5056604;28;20259;-86
2022/07/24 08:23:21;;;;;;;2.78;1.98;;;20.30;72.10;;;;;;5038366;28;20218;-86
2022/07/24 08:25:47;;;;;;;4.45;2.25;;;20.50;71.80;;;;;;5038591;28;20267;-85
2022/07/24 08:28:12;;;;;;;3.53;2.45;;;20.60;71.00;;;;;;5056570;28;20203;-85
2022/07/24 08:30:38;;;;;;;2.58;2.13;;;20.70;70.00;;;;;;5038881;28;20700;-85
2022/07/24 08:33:03;;;;;;;7.07;2.30;;;20.70;69.50;;;;;;5056718;28;20183;-85
2022/07/24 08:35:29;;;;;;;5.10;2.10;;;20.90;69.80;;;;;;5038299;28;20216;-86
2022/07/24 08:37:55;;;;;;;3.40;2.10;;;21.10;69.40;;;;;;5038511;28;20183;-86
2022/07/24 08:40:22;;;;;;;4.63;2.05;;;21.20;68.90;;;;;;5054813;28;20274;-86
2022/07/24 08:42:48;;;;;;;3.05;2.17;;;21.30;68.70;;;;;;5055881;28;20172;-86
2022/07/24 08:45:13;;;;;;;3.65;2.30;;;21.30;67.10;;;;;;5055858;28;20188;-86
2022/07/24 08:47:40;;;;;;;2.63;1.75;;;21.50;66.60;;;;;;5037978;28;20689;-89
2022/07/24 08:50:07;;;;;;;4.38;2.40;;;21.50;67.70;;;;;;5038101;28;20317;-86
2022/07/24 08:52:35;;;;;;;2.83;1.98;;;21.70;67.20;;;;;;5056109;28;20168;-87
2022/07/24 08:55:01;;;;;;;4.00;1.83;;;21.70;67.70;;;;;;5055771;28;20565;-87
2022/07/24 08:57:26;;;;;;;3.33;2.05;;;22.00;68.30;;;;;;5038290;28;20211;-87
2022/07/24 08:59:52;;;;;;;2.47;1.90;;;21.90;65.20;;;;;;5037927;28;20234;-88
2022/07/24 09:02:18;;;;;;;5.22;2.10;;;22.10;66.50;;;;;;5037883;28;20180;-87
2022/07/24 09:04:46;;;;;;;5.50;2.03;;;22.00;63.70;;;;;;5037740;28;20200;-87
2022/07/24 09:07:19;;;;;;;3.67;2.00;;;22.20;66.10;;;;;;5037759;28;20249;-88
2022/07/24 09:10:03;;;;;;;3.47;2.55;;;22.40;65.70;;;;;;5036636;28;20614;-88
2022/07/24 09:12:41;;;;;;;3.58;2.10;;;22.60;64.60;;;;;;5037928;28;20565;-88
2022/07/24 09:15:26;;;;;;;3.75;2.15;;;22.60;63.40;;;;;;5055278;28;20561;-87
2022/07/24 09:17:52;;;;;;;4.35;2.20;;;22.60;63.50;;;;;;5037514;28;20180;-87
2022/07/24 09:20:19;;;;;;;4.82;2.13;;;22.70;63.30;;;;;;5055432;28;20168;-87
2022/07/24 09:22:44;;;;;;;3.42;2.20;;;23.00;63.30;;;;;;5037408;28;20180;-88
2022/07/24 09:25:27;;;;;;;2.72;2.25;;;23.10;61.60;;;;;;5037458;28;20647;-88
2022/07/24 09:27:56;;;;;;;3.42;2.50;;;23.10;61.90;;;;;;5037363;28;20195;-87
2022/07/24 09:30:32;;;;;;;4.20;2.13;;;22.90;61.70;;;;;;5037305;28;20184;-86
2022/07/24 09:33:13;;;;;;;3.97;2.47;;;22.90;61.10;;;;;;5055112;28;20569;-87
2022/07/24 09:35:44;;;;;;;4.10;2.50;;;23.10;62.50;;;;;;5054849;28;20203;-87
2022/07/24 09:38:18;;;;;;;2.50;2.22;;;23.20;61.00;;;;;;5055054;28;20196;-87
2022/07/24 09:40:46;;;;;;;6.10;3.00;;;23.30;61.40;;;;;;5037528;28;20177;-87
2022/07/24 09:43:16;;;;;;;5.70;2.47;;;23.50;60.90;;;;;;5037077;28;20180;-88
2022/07/24 09:46:15;;;;;;;3.40;2.20;;;23.60;58.90;;;;;;5037096;28;20223;-88
2022/07/24 09:48:51;;;;;;;4.35;2.65;;;23.50;59.60;;;;;;5038040;28;20187;-87
2022/07/24 09:51:17;;;;;;;3.35;2.33;;;23.60;59.30;;;;;;5055019;28;20164;-88
2022/07/24 09:53:47;;;;;;;6.43;2.40;;;23.80;59.50;;;;;;5037652;28;20188;-87
2022/07/24 09:56:15;;;;;;;4.80;2.40;;;23.80;60.20;;;;;;5054724;28;20168;-87
2022/07/24 09:58:46;;;;;;;4.38;2.80;;;23.70;60.80;;;;;;5036761;28;20661;-87
2022/07/24 10:01:15;;;;;;;3.58;2.70;;;23.50;60.90;;;;;;5054656;28;20196;-87
2022/07/24 10:03:42;;;;;;;3.60;2.72;;;23.60;61.40;;;;;;5036654;28;20191;-87
2022/07/24 10:06:11;;;;;;;3.92;2.47;;;23.90;60.90;;;;;;5036686;28;20176;-88
2022/07/24 10:08:39;;;;;;;4.28;3.13;;;24.20;60.40;;;;;;5054365;28;20176;-88
2022/07/24 10:11:15;;;;;;;5.65;2.92;;;24.20;58.90;;;;;;5036455;28;20180;-88
2022/07/24 10:13:42;;;;;;;5.45;3.13;;;24.40;58.90;;;;;;5036540;28;20219;-88
2022/07/24 10:16:13;;;;;;;5.20;2.92;;;24.50;57.90;;;;;;5054418;28;20211;-88
2022/07/24 10:18:49;;;;;;;5.18;3.20;;;24.70;58.10;;;;;;5036614;28;20184;-89
2022/07/24 10:21:45;;;;;;;4.10;2.97;;;24.70;56.20;;;;;;5036133;28;20183;-87
2022/07/24 10:24:43;;;;;;;6.45;3.45;;;24.80;57.00;;;;;;5035099;28;20207;-87
2022/07/24 10:27:42;;;;;;;4.85;3.42;;;24.80;54.80;;;;;;5003759;28;20666;-87
2022/07/24 10:30:10;;;;;;;3.22;2.67;;;24.70;56.70;;;;;;5033442;28;20184;-87
2022/07/24 10:32:37;;;;;;;5.47;2.88;;;24.90;57.20;;;;;;5054294;28;20553;-87
2022/07/24 10:35:18;;;;;;;4.88;2.92;;;25.20;57.00;;;;;;5036260;28;20212;-86
2022/07/24 10:37:55;;;;;;;9.60;3.45;;;25.30;56.80;;;;;;5036213;28;20180;-86
2022/07/24 10:40:24;;;;;;;8.05;3.50;;;25.50;56.60;;;;;;5036138;28;20176;-86
2022/07/24 10:43:05;;;;;;;6.18;3.30;;;25.70;56.30;;;;;;5053712;28;20176;-87
2022/07/24 10:45:54;;;;;;;4.72;3.47;;;25.50;54.00;;;;;;5053950;28;20192;-86
2022/07/24 10:48:19;;;;;;;11.25;3.45;;;25.40;54.50;;;;;;5041545;28;20224;-86
2022/07/24 10:51:13;;;;;;;5.10;3.60;;;25.50;53.60;;;;;;5035903;28;20650;-86
2022/07/24 10:53:42;;;;;;;4.97;3.75;;;25.50;54.00;;;;;;5033590;28;20271;-86
2022/07/24 10:56:15;;;;;;;3.92;3.33;;;25.40;53.60;;;;;;5035719;28;20192;-86
2022/07/24 10:59:07;;;;;;;6.85;3.40;;;25.50;54.40;;;;;;5035775;28;20641;-87
2022/07/24 11:01:35;;;;;;;5.07;4.32;;;25.70;54.60;;;;;;5035583;28;20183;-87
2022/07/24 11:04:22;;;;;;;6.35;3.90;;;25.90;53.40;;;;;;5035513;28;20279;-85
2022/07/24 11:06:51;;;;;;;4.63;3.67;;;25.90;53.10;;;;;;5035775;28;20203;-86
2022/07/24 11:09:18;;;;;;;6.97;3.83;;;25.90;53.20;;;;;;5035638;28;20263;-86
2022/07/24 11:11:53;;;;;;;6.47;3.88;;;25.90;53.20;;;;;;5035559;28;20168;-86
2022/07/24 11:14:24;;;;;;;3.78;3.35;;;25.80;52.40;;;;;;5053328;28;20183;-85
2022/07/24 11:16:50;;;;;;;4.45;3.40;;;26.00;53.00;;;;;;5035499;28;20206;-86
2022/07/24 11:19:15;;;;;;;5.50;3.72;;;26.30;52.30;;;;;;5053103;28;20251;-89
2022/07/24 11:21:43;;;;;;;4.70;3.65;;;26.30;51.60;;;;;;5053126;28;20191;-86
2022/07/24 11:24:21;;;;;;;5.82;4.15;;;26.10;52.60;;;;;;5052984;28;20199;-85
2022/07/24 11:27:05;;;;;;;7.60;3.75;;;26.10;53.00;;;;;;5035485;28;20200;-86
2022/07/24 11:29:34;;;;;;;10.88;4.20;;;26.40;53.80;;;;;;5035308;28;20202;-86
2022/07/24 11:32:05;;;;;;;7.40;3.70;;;26.20;51.70;;;;;;5034568;28;20179;-86
2022/07/24 11:34:32;;;;;;;6.35;4.13;;;26.30;52.50;;;;;;5035531;28;20246;-86
2022/07/24 11:36:58;;;;;;;5.40;3.97;;;26.50;51.60;;;;;;5035320;28;20267;-86
2022/07/24 11:39:36;;;;;;;5.75;3.88;;;26.60;52.40;;;;;;5035342;28;20199;-86
2022/07/24 11:42:07;;;;;;;5.45;3.53;;;26.60;50.40;;;;;;5035350;28;20194;-86
2022/07/24 11:44:35;;;;;;;9.88;4.18;;;26.50;52.40;;;;;;5053011;28;20191;-86
2022/07/24 11:47:22;;;;;;;4.28;3.80;;;26.50;52.90;;;;;;5052842;28;20203;-87
2022/07/24 11:49:53;;;;;;;6.60;4.55;;;26.50;51.80;;;;;;5035768;28;20218;-86
2022/07/24 11:52:25;;;;;;;7.30;4.13;;;26.50;50.20;;;;;;5035178;28;20262;-86
2022/07/24 11:54:53;;;;;;;5.93;3.85;;;26.20;52.90;;;;;;5052767;28;20192;-85
2022/07/24 11:57:28;;;;;;;14.45;4.30;;;26.10;53.00;;;;;;5052889;28;20652;-86
2022/07/24 11:59:54;;;;;;;7.05;3.63;;;26.30;53.70;;;;;;5035023;28;20196;-86
2022/07/24 12:02:22;;;;;;;5.53;4.57;;;26.30;53.30;;;;;;5052756;28;20225;-85
2022/07/24 12:04:49;;;;;;;6.80;4.10;;;26.20;52.50;;;;;;5034705;28;20677;-86
2022/07/24 12:07:23;;;;;;;6.82;3.70;;;26.10;52.70;;;;;;5052875;28;20192;-85
2022/07/24 12:09:57;;;;;;;6.90;4.13;;;26.20;53.70;;;;;;5035349;28;20172;-86
2022/07/24 12:12:25;;;;;;;4.70;4.00;;;26.30;51.90;;;;;;5034817;28;20172;-86
2022/07/24 12:15:12;;;;;;;4.80;3.92;;;26.20;53.60;;;;;;5034791;28;20278;-85
2022/07/24 12:18:03;;;;;;;7.90;4.10;;;26.20;53.80;;;;;;5034341;28;20271;-86
2022/07/24 12:20:42;;;;;;;5.03;3.95;;;26.20;53.90;;;;;;5034700;28;20658;-86
2022/07/24 12:23:12;;;;;;;7.25;3.80;;;26.20;55.30;;;;;;5034645;28;20184;-86
2022/07/24 12:25:39;;;;;;;5.78;4.13;;;26.30;54.60;;;;;;5034749;28;20196;-85
2022/07/24 12:28:14;;;;;;;7.13;3.97;;;26.50;53.90;;;;;;5034662;28;20204;-85
2022/07/24 12:30:41;;;;;;;4.70;4.15;;;26.80;53.60;;;;;;5052496;28;20195;-85
2022/07/24 12:33:22;;;;;;;7.18;4.35;;;26.90;51.10;;;;;;5034868;28;20180;-86
2022/07/24 12:36:08;;;;;;;5.60;4.30;;;26.90;52.30;;;;;;5034698;28;20648;-87
2022/07/24 12:38:35;;;;;;;4.95;4.40;;;26.90;51.60;;;;;;5035407;28;20529;-86
2022/07/24 12:41:11;;;;;;;5.10;3.95;;;27.10;53.30;;;;;;5052871;28;20168;-86
2022/07/24 12:43:51;;;;;;;4.55;3.72;;;27.00;51.40;;;;;;5054152;28;20152;-86
2022/07/24 12:46:19;;;;;;;5.78;3.72;;;26.80;51.50;;;;;;5056032;28;20709;-86
2022/07/24 12:49:05;;;;;;;5.97;3.53;;;27.10;51.10;;;;;;5038251;28;20176;-85